createdAt,value
2023-08-10T00:00:29.008Z,63.59
2023-08-10T00:02:56.631Z,63.34
2023-08-10T00:05:23.895Z,63.26
2023-08-10T00:07:50.982Z,63.66
2023-08-10T00:10:18.238Z,63.66
2023-08-10T00:12:46.312Z,63.64
2023-08-10T00:15:13.418Z,63.83
2023-08-10T00:17:40.684Z,63.80
2023-08-10T00:20:11.474Z,63.65
2023-08-10T00:22:39.380Z,63.83
2023-08-10T00:25:07.018Z,64.09
2023-08-10T00:27:39.882Z,63.88
2023-08-10T00:30:09.044Z,63.85
2023-08-10T00:32:37.402Z,63.97
2023-08-10T00:35:05.092Z,63.96
2023-08-10T00:37:32.602Z,64.12
2023-08-10T00:39:59.677Z,64.06
2023-08-10T00:42:27.261Z,63.81
2023-08-10T00:44:55.522Z,63.66
2023-08-10T00:47:22.923Z,63.93
2023-08-10T00:49:50.070Z,63.77
2023-08-10T00:52:17.535Z,64.00
2023-08-10T00:54:44.941Z,63.64
2023-08-10T00:57:12.429Z,64.09
2023-08-10T00:59:41.301Z,63.96
2023-08-10T01:02:09.176Z,64.17
2023-08-10T01:04:36.608Z,63.86
2023-08-10T01:07:18.578Z,64.15
2023-08-10T01:10:08.358Z,64.10
2023-08-10T01:12:53.287Z,63.89
2023-08-10T01:15:25.883Z,64.23
2023-08-10T01:17:56.354Z,64.09
2023-08-10T01:20:25.198Z,64.06
2023-08-10T01:22:58.531Z,63.91
2023-08-10T01:25:26.781Z,63.89
2023-08-10T01:27:54.313Z,64.25
2023-08-10T01:30:22.269Z,64.05
2023-08-10T01:32:52.827Z,64.34
2023-08-10T01:35:20.196Z,64.22
2023-08-10T01:37:47.715Z,64.17
2023-08-10T01:40:15.205Z,64.33
2023-08-10T01:42:44.094Z,64.35
2023-08-10T01:45:30.776Z,64.02
2023-08-10T01:48:28.298Z,64.48
2023-08-10T01:50:59.221Z,64.64
2023-08-10T01:53:30.991Z,64.32
2023-08-10T01:55:59.499Z,64.17
2023-08-10T01:58:26.693Z,64.47
2023-08-10T02:00:54.060Z,64.25
2023-08-10T02:03:21.285Z,64.08
2023-08-10T02:05:48.846Z,64.15
2023-08-10T02:08:16.069Z,64.62
2023-08-10T02:10:43.408Z,64.26
2023-08-10T02:13:10.793Z,64.37
2023-08-10T02:15:38.088Z,64.39
2023-08-10T02:18:06.273Z,64.59
2023-08-10T02:20:33.459Z,64.51
2023-08-10T02:23:00.524Z,64.18
2023-08-10T02:25:27.945Z,64.47
2023-08-10T02:27:55.122Z,64.12
2023-08-10T02:30:23.255Z,64.46
2023-08-10T02:32:50.595Z,64.60
2023-08-10T02:35:17.775Z,64.65
2023-08-10T02:37:45.737Z,64.45
2023-08-10T02:40:13.257Z,64.43
2023-08-10T02:42:41.552Z,64.25
2023-08-10T02:45:11.252Z,64.33
2023-08-10T02:47:38.641Z,64.21
2023-08-10T02:50:07.276Z,64.26
2023-08-10T02:52:35.298Z,64.34
2023-08-10T02:55:02.949Z,64.50
2023-08-10T02:57:32.261Z,64.60
2023-08-10T03:00:00.155Z,64.64
2023-08-10T03:02:29.770Z,64.62
2023-08-10T03:04:59.248Z,64.46
2023-08-10T03:07:27.933Z,64.42
2023-08-10T03:09:56.509Z,64.58
2023-08-10T03:12:26.098Z,64.75
2023-08-10T03:14:53.167Z,64.50
2023-08-10T03:17:20.686Z,64.18
2023-08-10T03:19:49.553Z,64.75
2023-08-10T03:22:18.078Z,64.40
2023-08-10T03:24:45.198Z,64.31
2023-08-10T03:27:12.340Z,64.41
2023-08-10T03:29:39.462Z,64.35
2023-08-10T03:32:07.623Z,64.39
2023-08-10T03:34:34.847Z,64.11
2023-08-10T03:37:03.125Z,64.49
2023-08-10T03:39:30.477Z,64.22
2023-08-10T03:41:57.712Z,64.16
2023-08-10T03:44:24.908Z,63.90
2023-08-10T03:46:54.747Z,64.04
2023-08-10T03:49:24.232Z,63.69
2023-08-10T03:51:51.898Z,63.81
2023-08-10T03:54:19.197Z,63.51
2023-08-10T03:56:46.263Z,63.42
2023-08-10T03:59:14.069Z,63.68
2023-08-10T04:01:42.751Z,63.41
2023-08-10T04:04:09.881Z,63.59
2023-08-10T04:06:37.395Z,63.50
2023-08-10T04:09:06.230Z,63.13
2023-08-10T04:11:33.907Z,63.57
2023-08-10T04:14:01.068Z,63.29
2023-08-10T04:16:28.339Z,63.24
2023-08-10T04:18:55.430Z,63.15
2023-08-10T04:21:22.614Z,63.45
2023-08-10T04:23:49.751Z,63.25
2023-08-10T04:26:16.820Z,63.21
2023-08-10T04:28:44.116Z,62.88
2023-08-10T04:31:11.498Z,62.65
2023-08-10T04:33:38.665Z,62.62
2023-08-10T04:36:06.130Z,62.94
2023-08-10T04:38:33.865Z,62.56
2023-08-10T04:41:01.051Z,62.55
2023-08-10T04:43:28.147Z,62.83
2023-08-10T04:45:55.266Z,62.28
2023-08-10T04:48:22.338Z,62.02
2023-08-10T04:50:49.414Z,61.92
2023-08-10T04:53:16.509Z,61.99
2023-08-10T04:55:44.599Z,62.18
2023-08-10T04:58:11.769Z,61.90
2023-08-10T05:00:38.896Z,61.80
2023-08-10T05:03:06.032Z,62.00
2023-08-10T05:05:33.946Z,61.59
2023-08-10T05:08:01.225Z,61.76
2023-08-10T05:10:28.615Z,61.84
2023-08-10T05:12:55.668Z,61.72
2023-08-10T05:15:22.790Z,61.66
2023-08-10T05:17:49.929Z,61.65
2023-08-10T05:20:17.057Z,61.25
2023-08-10T05:22:44.501Z,61.15
2023-08-10T05:25:15.241Z,60.92
2023-08-10T05:27:44.319Z,61.32
2023-08-10T05:30:17.821Z,60.92
2023-08-10T05:32:45.858Z,60.68
2023-08-10T05:35:15.681Z,60.99
2023-08-10T05:37:43.044Z,61.03
2023-08-10T05:40:12.473Z,60.74
2023-08-10T05:42:41.328Z,60.42
2023-08-10T05:45:16.877Z,60.25
2023-08-10T05:47:45.523Z,60.34
2023-08-10T05:50:15.955Z,60.40
2023-08-10T05:52:44.487Z,60.08
2023-08-10T05:55:14.393Z,60.11
2023-08-10T05:57:42.580Z,59.90
2023-08-10T06:00:13.796Z,59.85
2023-08-10T06:02:41.989Z,59.71
2023-08-10T06:05:09.525Z,59.50
2023-08-10T06:07:37.891Z,59.24
2023-08-10T06:10:06.060Z,59.39
2023-08-10T06:12:33.272Z,58.93
2023-08-10T06:15:01.198Z,58.59
2023-08-10T06:17:28.369Z,58.64
2023-08-10T06:19:58.896Z,58.61
2023-08-10T06:22:26.444Z,58.75
2023-08-10T06:24:54.040Z,58.19
2023-08-10T06:27:21.183Z,58.33
2023-08-10T06:29:48.255Z,57.74
2023-08-10T06:32:15.358Z,57.87
2023-08-10T06:34:43.122Z,57.86
2023-08-10T06:37:11.453Z,57.71
2023-08-10T06:39:38.799Z,57.25
2023-08-10T06:42:06.369Z,57.00
2023-08-10T06:44:36.848Z,56.45
2023-08-10T06:47:05.257Z,56.26
2023-08-10T06:49:32.974Z,56.47
2023-08-10T06:52:00.612Z,56.16
2023-08-10T06:54:28.652Z,56.29
2023-08-10T06:56:55.974Z,55.64
2023-08-10T06:59:23.146Z,55.21
2023-08-10T07:01:50.486Z,55.23
2023-08-10T07:04:18.977Z,55.33
2023-08-10T07:06:46.098Z,55.13
2023-08-10T07:09:13.441Z,54.11
2023-08-10T07:11:40.566Z,54.08
2023-08-10T07:14:07.860Z,54.07
2023-08-10T07:16:35.040Z,53.70
2023-08-10T07:19:02.211Z,53.27
2023-08-10T07:21:29.359Z,53.57
2023-08-10T07:23:57.528Z,53.02
2023-08-10T07:26:25.127Z,52.64
2023-08-10T07:28:52.417Z,52.04
2023-08-10T07:31:20.937Z,52.22
2023-08-10T07:33:48.225Z,52.40
2023-08-10T07:36:15.286Z,51.91
2023-08-10T07:38:43.213Z,51.67
2023-08-10T07:41:11.245Z,51.54
2023-08-10T07:43:38.332Z,51.25
2023-08-10T07:46:05.494Z,51.03
2023-08-10T07:48:32.706Z,50.55
2023-08-10T07:51:00.211Z,50.59
2023-08-10T07:53:29.637Z,50.65
2023-08-10T07:55:57.481Z,50.43
2023-08-10T07:58:24.621Z,50.07
2023-08-10T08:00:51.873Z,50.03
2023-08-10T08:03:19.345Z,49.80
2023-08-10T08:05:46.760Z,49.56
2023-08-10T08:08:14.121Z,49.72
2023-08-10T08:10:42.687Z,49.37
2023-08-10T08:13:09.889Z,49.09
2023-08-10T08:15:37.488Z,49.31
2023-08-10T08:18:42.170Z,48.89
2023-08-10T08:21:13.813Z,48.77
2023-08-10T08:23:41.231Z,48.77
2023-08-10T08:26:08.665Z,49.54
2023-08-10T08:28:35.962Z,49.74
2023-08-10T08:31:03.170Z,50.12
2023-08-10T08:33:31.041Z,49.71
2023-08-10T08:35:58.323Z,49.34
2023-08-10T08:38:26.272Z,49.06
2023-08-10T08:40:56.254Z,48.93
2023-08-10T08:43:23.900Z,48.64
2023-08-10T08:45:51.262Z,48.20
2023-08-10T08:48:19.327Z,48.19
2023-08-10T08:50:47.438Z,48.01
2023-08-10T08:53:16.313Z,48.09
2023-08-10T08:55:43.608Z,47.79
2023-08-10T08:58:10.884Z,47.77
2023-08-10T09:00:40.573Z,47.58
2023-08-10T09:03:07.801Z,47.44
2023-08-10T09:05:35.130Z,47.94
2023-08-10T09:08:02.683Z,47.63
2023-08-10T09:10:30.697Z,48.01
2023-08-10T09:12:57.842Z,47.50
2023-08-10T09:15:28.467Z,47.39
2023-08-10T09:17:55.691Z,46.87
2023-08-10T09:20:28.207Z,46.72
2023-08-10T09:22:58.279Z,46.57
2023-08-10T09:25:26.256Z,46.79
2023-08-10T09:27:54.477Z,46.94
2023-08-10T09:30:21.959Z,47.42
2023-08-10T09:32:49.188Z,46.51
2023-08-10T09:35:20.478Z,45.88
2023-08-10T09:37:49.052Z,46.34
2023-08-10T09:40:17.797Z,45.17
2023-08-10T09:42:45.062Z,45.18
2023-08-10T09:45:17.116Z,44.27
2023-08-10T09:47:44.567Z,43.72
2023-08-10T09:50:18.773Z,41.42
2023-08-10T09:52:46.732Z,40.81
2023-08-10T09:55:15.896Z,40.19
2023-08-10T09:57:47.294Z,39.48
2023-08-10T10:00:24.938Z,38.92
2023-08-10T10:02:52.709Z,39.03
2023-08-10T10:07:51.443Z,39.16
2023-08-10T10:10:19.878Z,40.09
2023-08-10T10:12:50.521Z,40.90
2023-08-10T10:15:20.056Z,41.55
2023-08-10T10:17:52.451Z,41.95
2023-08-10T10:20:21.176Z,41.62
2023-08-10T10:22:48.617Z,41.01
2023-08-10T10:25:18.899Z,40.92
2023-08-10T10:27:50.420Z,40.79
2023-08-10T10:30:19.444Z,40.86
2023-08-10T10:32:53.336Z,40.49
2023-08-10T10:35:25.728Z,41.23
2023-08-10T10:37:57.494Z,41.94
2023-08-10T10:40:25.804Z,41.67
2023-08-10T10:43:04.901Z,41.70
2023-08-10T10:45:40.531Z,41.68
2023-08-10T10:48:10.516Z,41.83
2023-08-10T10:50:37.786Z,41.33
2023-08-10T10:53:14.433Z,40.85
2023-08-10T10:55:44.138Z,41.33
2023-08-10T10:58:13.555Z,41.62
2023-08-10T11:00:42.430Z,41.48
2023-08-10T11:03:11.312Z,42.34
2023-08-10T11:05:39.221Z,42.24
2023-08-10T11:08:07.892Z,42.27
2023-08-10T11:10:38.282Z,41.77
2023-08-10T11:13:07.219Z,41.75
2023-08-10T11:15:35.859Z,41.97
2023-08-10T11:18:11.140Z,41.98
2023-08-10T11:20:46.471Z,42.44
2023-08-10T11:23:13.673Z,42.16
2023-08-10T11:25:51.464Z,42.44
2023-08-10T11:28:24.840Z,42.41
2023-08-10T11:30:52.137Z,42.59
2023-08-10T11:33:20.819Z,42.34
2023-08-10T11:35:52.984Z,41.89
2023-08-10T11:38:24.612Z,41.29
2023-08-10T11:40:51.990Z,41.30
2023-08-10T11:43:22.360Z,41.80
2023-08-10T11:45:49.767Z,41.74
2023-08-10T11:48:20.647Z,41.48
2023-08-10T11:50:48.165Z,40.88
2023-08-10T11:53:20.503Z,40.69
2023-08-10T11:55:50.581Z,39.74
2023-08-10T11:58:20.773Z,39.33
2023-08-10T12:00:55.091Z,39.00
2023-08-10T12:03:30.338Z,38.66
2023-08-10T12:06:06.992Z,39.44
2023-08-10T12:08:37.962Z,39.40
2023-08-10T12:11:15.867Z,39.60
2023-08-10T12:13:46.134Z,39.51
2023-08-10T12:16:15.478Z,39.72
2023-08-10T12:18:42.735Z,38.92
2023-08-10T12:21:09.891Z,38.65
2023-08-10T12:23:37.081Z,38.69
2023-08-10T12:26:04.172Z,38.11
2023-08-10T12:28:31.476Z,38.46
2023-08-10T12:30:58.562Z,38.86
2023-08-10T12:33:25.756Z,39.14
2023-08-10T12:35:53.503Z,39.07
2023-08-10T12:38:21.668Z,39.27
2023-08-10T12:40:48.861Z,39.24
2023-08-10T12:43:16.165Z,39.72
2023-08-10T12:45:43.238Z,40.00
2023-08-10T12:48:10.415Z,40.40
2023-08-10T12:50:37.766Z,40.95
2023-08-10T12:53:05.220Z,40.88
2023-08-10T12:55:33.560Z,41.20
2023-08-10T12:58:00.844Z,40.94
2023-08-10T13:00:27.977Z,42.03
2023-08-10T13:02:55.201Z,41.24
2023-08-10T13:05:22.372Z,41.02
2023-08-10T13:07:49.437Z,41.56
2023-08-10T13:10:16.847Z,42.07
2023-08-10T13:12:47.296Z,41.59
2023-08-10T13:15:14.526Z,42.09
2023-08-10T13:17:41.613Z,42.48
2023-08-10T13:20:09.512Z,42.61
2023-08-10T13:22:38.237Z,43.58
2023-08-10T13:25:07.428Z,43.51
2023-08-10T13:27:34.919Z,43.53
2023-08-10T13:30:02.971Z,44.28
2023-08-10T13:32:32.907Z,44.31
2023-08-10T13:35:00.029Z,44.51
2023-08-10T13:37:27.135Z,44.52
2023-08-10T13:39:54.257Z,45.09
2023-08-10T13:42:21.392Z,45.13
2023-08-10T13:44:48.453Z,45.35
2023-08-10T13:47:15.585Z,46.16
2023-08-10T13:49:53.419Z,45.75
2023-08-10T13:52:24.603Z,45.93
2023-08-10T13:54:52.237Z,45.79
2023-08-10T13:57:20.109Z,45.03
2023-08-10T13:59:48.588Z,45.11
2023-08-10T14:02:17.223Z,44.14
2023-08-10T14:04:44.698Z,43.72
2023-08-10T14:07:13.651Z,42.99
2023-08-10T14:09:42.104Z,42.74
2023-08-10T14:12:10.268Z,42.26
2023-08-10T14:14:37.648Z,42.21
2023-08-10T14:17:05.011Z,41.85
2023-08-10T14:19:32.195Z,41.56
2023-08-10T14:21:59.278Z,41.72
2023-08-10T14:24:26.433Z,41.31
2023-08-10T14:26:53.562Z,40.93
2023-08-10T14:29:20.648Z,40.46
2023-08-10T14:31:47.741Z,40.76
2023-08-10T14:34:15.020Z,39.99
2023-08-10T14:36:42.207Z,40.35
2023-08-10T14:39:09.239Z,40.89
2023-08-10T14:41:36.526Z,41.46
2023-08-10T14:44:03.814Z,41.41
2023-08-10T14:46:30.963Z,42.10
2023-08-10T14:49:00.104Z,43.05
2023-08-10T14:51:27.174Z,42.60
2023-08-10T14:53:54.227Z,42.83
2023-08-10T14:56:21.477Z,43.12
2023-08-10T14:58:48.600Z,43.79
2023-08-10T15:01:15.660Z,43.62
2023-08-10T15:03:43.823Z,44.00
2023-08-10T15:06:13.457Z,44.70
2023-08-10T15:08:41.030Z,44.42
2023-08-10T15:11:13.960Z,44.59
2023-08-10T15:13:41.167Z,45.08
2023-08-10T15:16:08.288Z,45.25
2023-08-10T15:18:35.626Z,45.26
2023-08-10T15:21:02.713Z,45.40
2023-08-10T15:26:00.395Z,46.02
2023-08-10T15:28:27.793Z,46.64
2023-08-10T15:30:54.873Z,45.83
2023-08-10T15:33:22.059Z,45.96
2023-08-10T15:35:49.077Z,45.25
2023-08-10T15:38:16.233Z,44.78
2023-08-10T15:40:43.596Z,44.42
2023-08-10T15:43:10.658Z,44.57
2023-08-10T15:45:38.911Z,44.59
2023-08-10T15:48:06.424Z,45.31
2023-08-10T15:50:33.655Z,45.74
2023-08-10T15:53:00.818Z,45.67
2023-08-10T15:55:27.972Z,46.74
2023-08-10T15:57:55.076Z,46.89
2023-08-10T16:00:22.650Z,47.42
2023-08-10T16:02:49.985Z,46.38
2023-08-10T16:05:17.346Z,45.64
2023-08-10T16:07:44.654Z,45.24
2023-08-10T16:10:12.418Z,44.49
2023-08-10T16:12:39.830Z,44.29
2023-08-10T16:15:08.182Z,45.13
2023-08-10T16:17:36.451Z,46.08
2023-08-10T16:20:04.597Z,46.18
2023-08-10T16:22:32.239Z,46.35
2023-08-10T16:24:59.340Z,45.62
2023-08-10T16:27:26.527Z,45.33
2023-08-10T16:29:53.666Z,45.00
2023-08-10T16:32:20.750Z,45.28
2023-08-10T16:34:47.960Z,46.18
2023-08-10T16:37:15.371Z,46.48
2023-08-10T16:39:42.735Z,46.37
2023-08-10T16:42:09.947Z,46.74
2023-08-10T16:44:37.081Z,46.54
2023-08-10T16:47:04.328Z,46.73
2023-08-10T16:49:31.548Z,47.27
2023-08-10T16:52:02.208Z,47.16
2023-08-10T16:54:29.340Z,47.73
2023-08-10T16:56:57.068Z,47.74
2023-08-10T16:59:24.246Z,48.45
2023-08-10T17:01:52.004Z,48.66
2023-08-10T17:04:20.214Z,49.40
2023-08-10T17:06:47.565Z,49.62
2023-08-10T17:09:14.854Z,49.30
2023-08-10T17:11:42.019Z,49.63
2023-08-10T17:14:09.582Z,49.75
2023-08-10T17:16:36.774Z,50.38
2023-08-10T17:19:03.952Z,50.52
2023-08-10T17:21:31.163Z,50.90
2023-08-10T17:23:58.255Z,50.53
2023-08-10T17:26:25.364Z,51.09
2023-08-10T17:28:54.060Z,51.14
2023-08-10T17:31:22.798Z,51.42
2023-08-10T17:33:49.949Z,51.37
2023-08-10T17:36:17.182Z,51.20
2023-08-10T17:38:44.303Z,51.36
2023-08-10T17:41:11.379Z,51.50
2023-08-10T17:43:38.539Z,51.63
2023-08-10T17:46:07.527Z,51.65
2023-08-10T17:48:34.660Z,51.78
2023-08-10T17:51:01.996Z,51.68
2023-08-10T17:53:29.131Z,52.12
2023-08-10T17:55:56.666Z,52.14
2023-08-10T17:58:23.929Z,52.14
2023-08-10T18:00:51.240Z,52.17
2023-08-10T18:03:19.320Z,52.13
2023-08-10T18:05:46.807Z,52.27
2023-08-10T18:08:14.131Z,52.22
2023-08-10T18:10:41.424Z,52.41
2023-08-10T18:13:08.549Z,52.47
2023-08-10T18:15:35.731Z,52.66
2023-08-10T18:18:02.980Z,52.65
2023-08-10T18:20:30.118Z,53.30
2023-08-10T18:22:57.329Z,53.08
2023-08-10T18:25:24.564Z,53.12
2023-08-10T18:27:51.660Z,53.22
2023-08-10T18:30:19.101Z,53.09
2023-08-10T18:32:46.344Z,53.50
2023-08-10T18:35:16.398Z,53.33
2023-08-10T18:37:43.549Z,53.66
2023-08-10T18:40:12.192Z,53.80
2023-08-10T18:42:40.252Z,53.71
2023-08-10T18:45:07.899Z,54.13
2023-08-10T18:47:38.069Z,54.30
2023-08-10T18:50:05.506Z,54.59
2023-08-10T18:52:32.838Z,54.58
2023-08-10T18:54:59.932Z,54.63
2023-08-10T18:57:27.190Z,54.92
2023-08-10T18:59:54.318Z,54.89
2023-08-10T19:02:21.455Z,54.95
2023-08-10T19:04:48.568Z,55.26
2023-08-10T19:07:15.666Z,55.31
2023-08-10T19:09:43.292Z,55.21
2023-08-10T19:12:10.425Z,55.85
2023-08-10T19:14:37.505Z,55.85
2023-08-10T19:17:05.143Z,55.91
2023-08-10T19:19:32.210Z,55.71
2023-08-10T19:22:02.606Z,55.82
2023-08-10T19:24:29.747Z,56.05
2023-08-10T19:26:57.839Z,56.01
2023-08-10T19:29:25.398Z,56.34
2023-08-10T19:31:53.590Z,56.30
2023-08-10T19:34:20.819Z,56.28
2023-08-10T19:36:47.948Z,56.10
2023-08-10T19:39:15.098Z,56.27
2023-08-10T19:41:42.195Z,55.91
2023-08-10T19:44:09.732Z,55.95
2023-08-10T19:46:36.944Z,56.06
2023-08-10T19:49:05.172Z,55.98
2023-08-10T19:51:32.677Z,56.26
2023-08-10T19:54:00.478Z,56.00
2023-08-10T19:56:27.644Z,55.99
2023-08-10T19:58:54.780Z,56.48
2023-08-10T20:01:22.361Z,56.40
2023-08-10T20:03:49.905Z,56.66
2023-08-10T20:06:17.072Z,56.58
2023-08-10T20:08:44.200Z,56.98
2023-08-10T20:11:12.041Z,57.02
2023-08-10T20:13:39.620Z,57.23
2023-08-10T20:16:07.099Z,57.08
2023-08-10T20:18:34.438Z,57.60
2023-08-10T20:21:01.659Z,57.11
2023-08-10T20:23:29.162Z,57.44
2023-08-10T20:25:56.296Z,57.32
2023-08-10T20:28:23.414Z,57.66
2023-08-10T20:30:50.488Z,57.75
2023-08-10T20:33:18.718Z,57.51
2023-08-10T20:35:46.733Z,57.80
2023-08-10T20:38:13.880Z,57.85
2023-08-10T20:40:41.015Z,58.09
2023-08-10T20:43:08.306Z,58.16
2023-08-10T20:45:36.137Z,58.25
2023-08-10T20:48:03.723Z,58.21
2023-08-10T20:50:31.367Z,58.27
2023-08-10T20:52:58.454Z,58.27
2023-08-10T20:55:25.735Z,58.64
2023-08-10T20:57:53.089Z,58.15
2023-08-10T21:00:20.499Z,58.37
2023-08-10T21:02:47.712Z,58.32
2023-08-10T21:05:14.866Z,58.45
2023-08-10T21:07:41.993Z,58.76
2023-08-10T21:10:09.581Z,58.74
2023-08-10T21:12:36.952Z,58.64
2023-08-10T21:15:08.884Z,59.05
2023-08-10T21:17:37.832Z,59.15
2023-08-10T21:20:07.271Z,58.96
2023-08-10T21:22:34.830Z,59.13
2023-08-10T21:25:02.035Z,59.03
2023-08-10T21:27:31.459Z,58.79
2023-08-10T21:29:58.650Z,59.32
2023-08-10T21:32:25.723Z,58.98
2023-08-10T21:34:52.785Z,59.04
2023-08-10T21:37:20.140Z,59.53
2023-08-10T21:39:47.206Z,59.31
2023-08-10T21:42:14.660Z,59.54
2023-08-10T21:44:41.864Z,59.45
2023-08-10T21:47:09.263Z,59.78
2023-08-10T21:49:36.692Z,59.88
2023-08-10T21:52:05.434Z,59.68
2023-08-10T21:54:32.512Z,59.72
2023-08-10T21:57:02.653Z,59.89
2023-08-10T21:59:33.587Z,59.76
2023-08-10T22:02:01.001Z,59.89
2023-08-10T22:04:28.166Z,59.81
2023-08-10T22:06:55.274Z,59.96
2023-08-10T22:09:22.583Z,60.24
2023-08-10T22:11:49.658Z,60.20
2023-08-10T22:14:16.794Z,60.25
2023-08-10T22:16:44.131Z,60.79
2023-08-10T22:19:13.941Z,60.39
2023-08-10T22:21:41.193Z,60.64
2023-08-10T22:24:08.286Z,60.75
2023-08-10T22:26:35.377Z,61.11
2023-08-10T22:29:05.463Z,61.18
2023-08-10T22:31:33.156Z,61.12
2023-08-10T22:34:00.208Z,61.16
2023-08-10T22:36:27.659Z,60.98
2023-08-10T22:38:54.870Z,61.01
2023-08-10T22:41:22.697Z,61.24
2023-08-10T22:43:49.775Z,61.53
2023-08-10T22:46:17.024Z,61.44
2023-08-10T22:48:44.199Z,61.48
2023-08-10T22:51:12.430Z,61.67
2023-08-10T22:53:39.704Z,61.74
2023-08-10T22:56:06.843Z,61.51
2023-08-10T22:58:34.487Z,61.77
2023-08-10T23:01:02.078Z,61.85
2023-08-10T23:03:29.286Z,61.47
2023-08-10T23:05:56.470Z,61.65
2023-08-10T23:08:23.625Z,61.45
2023-08-10T23:10:50.802Z,61.64
2023-08-10T23:13:18.804Z,61.70
2023-08-10T23:15:46.253Z,61.81
2023-08-10T23:18:13.506Z,61.67
2023-08-10T23:20:41.685Z,62.01
2023-08-10T23:23:08.962Z,61.87
2023-08-10T23:25:38.087Z,62.21
2023-08-10T23:28:05.634Z,62.01
2023-08-10T23:30:32.710Z,62.23
2023-08-10T23:32:59.956Z,62.04
2023-08-10T23:35:28.088Z,62.17
2023-08-10T23:37:57.449Z,62.17
2023-08-10T23:40:24.895Z,62.38
2023-08-10T23:42:52.002Z,62.30
2023-08-10T23:45:19.532Z,62.16
2023-08-10T23:47:47.461Z,62.33
2023-08-10T23:50:14.752Z,62.39
2023-08-10T23:52:44.143Z,62.33
2023-08-10T23:55:11.538Z,62.64
2023-08-10T23:57:38.958Z,62.63
